sensor_id;sensor_type;location;lat;lon;timestamp;pressure;altitude;pressure_sealevel;temperature;humidity
71857;BME280;63344;46.980;28.882;2022-12-07T00:01:42;100944.25;;;-0.23;100.00
71857;BME280;63344;46.980;28.882;2022-12-07T00:04:11;100953.00;;;-0.18;100.00
71857;BME280;63344;46.980;28.882;2022-12-07T00:06:42;100948.63;;;-0.19;100.00
71857;BME280;63344;46.980;28.882;2022-12-07T00:09:14;100935.56;;;-0.21;99.98
71857;BME280;63344;46.980;28.882;2022-12-07T00:11:43;100939.03;;;-0.20;100.00
71857;BME280;63344;46.980;28.882;2022-12-07T00:14:13;100928.59;;;-0.23;100.00
71857;BME280;63344;46.980;28.882;2022-12-07T00:16:41;100932.13;;;-0.18;100.00
71857;BME280;63344;46.980;28.882;2022-12-07T00:19:09;100934.69;;;-0.21;100.00
71857;BME280;63344;46.980;28.882;2022-12-07T00:21:37;100923.38;;;-0.22;100.00
71857;BME280;63344;46.980;28.882;2022-12-07T00:24:05;100931.22;;;-0.20;100.00
71857;BME280;63344;46.980;28.882;2022-12-07T00:26:35;100926.00;;;-0.20;100.00
71857;BME280;63344;46.980;28.882;2022-12-07T00:29:22;100933.88;;;-0.15;100.00
71857;BME280;63344;46.980;28.882;2022-12-07T00:31:50;100912.91;;;-0.25;100.00
71857;BME280;63344;46.980;28.882;2022-12-07T00:34:19;100915.59;;;-0.17;100.00
71857;BME280;63344;46.980;28.882;2022-12-07T00:36:47;100919.09;;;-0.18;100.00
71857;BME280;63344;46.980;28.882;2022-12-07T00:39:14;100918.22;;;-0.15;100.00
71857;BME280;63344;46.980;28.882;2022-12-07T00:41:42;100906.91;;;-0.16;100.00
71857;BME280;63344;46.980;28.882;2022-12-07T00:44:09;100908.66;;;-0.18;100.00
71857;BME280;63344;46.980;28.882;2022-12-07T00:46:36;100892.97;;;-0.18;100.00
71857;BME280;63344;46.980;28.882;2022-12-07T00:49:03;100899.97;;;-0.15;100.00
71857;BME280;63344;46.980;28.882;2022-12-07T00:51:31;100903.44;;;-0.15;100.00
71857;BME280;63344;46.980;28.882;2022-12-07T00:53:58;100891.19;;;-0.21;100.00
71857;BME280;63344;46.980;28.882;2022-12-07T00:56:27;100885.09;;;-0.21;100.00
71857;BME280;63344;46.980;28.882;2022-12-07T00:59:02;100901.72;;;-0.13;100.00
71857;BME280;63344;46.980;28.882;2022-12-07T01:01:35;100898.25;;;-0.12;100.00
71857;BME280;63344;46.980;28.882;2022-12-07T01:04:03;100901.78;;;-0.05;100.00
71857;BME280;63344;46.980;28.882;2022-12-07T01:06:30;100885.19;;;-0.10;100.00
71857;BME280;63344;46.980;28.882;2022-12-07T01:08:58;100886.16;;;-0.04;100.00
71857;BME280;63344;46.980;28.882;2022-12-07T01:11:28;100881.75;;;-0.08;100.00
71857;BME280;63344;46.980;28.882;2022-12-07T01:13:56;100874.81;;;-0.03;100.00
71857;BME280;63344;46.980;28.882;2022-12-07T01:16:25;100872.19;;;-0.04;100.00
71857;BME280;63344;46.980;28.882;2022-12-07T01:18:54;100866.97;;;-0.06;100.00
71857;BME280;63344;46.980;28.882;2022-12-07T01:21:24;100868.72;;;-0.05;100.00
71857;BME280;63344;46.980;28.882;2022-12-07T01:23:52;100858.31;;;-0.02;100.00
71857;BME280;63344;46.980;28.882;2022-12-07T01:26:21;100860.09;;;0.03;100.00
71857;BME280;63344;46.980;28.882;2022-12-07T01:28:50;100863.53;;;0.02;100.00
71857;BME280;63344;46.980;28.882;2022-12-07T01:31:19;100860.09;;;0.06;100.00
71857;BME280;63344;46.980;28.882;2022-12-07T01:33:50;100866.25;;;0.14;100.00
71857;BME280;63344;46.980;28.882;2022-12-07T01:36:23;100871.50;;;0.17;100.00
71857;BME280;63344;46.980;28.882;2022-12-07T01:38:54;100865.44;;;0.19;100.00
71857;BME280;63344;46.980;28.882;2022-12-07T01:41:26;100862.84;;;0.21;100.00
71857;BME280;63344;46.980;28.882;2022-12-07T01:44:13;100847.19;;;0.24;100.00
71857;BME280;63344;46.980;28.882;2022-12-07T01:46:43;100852.41;;;0.23;100.00
71857;BME280;63344;46.980;28.882;2022-12-07T01:49:21;100845.44;;;0.23;100.00
71857;BME280;63344;46.980;28.882;2022-12-07T01:51:52;100848.06;;;0.25;100.00
71857;BME280;63344;46.980;28.882;2022-12-07T01:54:24;100841.97;;;0.24;100.00
71857;BME280;63344;46.980;28.882;2022-12-07T01:56:54;100850.66;;;0.23;100.00
71857;BME280;63344;46.980;28.882;2022-12-07T01:59:24;100848.06;;;0.28;100.00
71857;BME280;63344;46.980;28.882;2022-12-07T02:01:54;100826.31;;;0.24;100.00
71857;BME280;63344;46.980;28.882;2022-12-07T02:04:22;100835.91;;;0.31;100.00
71857;BME280;63344;46.980;28.882;2022-12-07T02:06:50;100832.44;;;0.31;100.00
71857;BME280;63344;46.980;28.882;2022-12-07T02:09:17;100827.22;;;0.31;100.00
71857;BME280;63344;46.980;28.882;2022-12-07T02:11:45;100831.59;;;0.36;100.00
71857;BME280;63344;46.980;28.882;2022-12-07T02:14:12;100835.94;;;0.37;100.00
71857;BME280;63344;46.980;28.882;2022-12-07T02:16:47;100834.25;;;0.43;100.00
71857;BME280;63344;46.980;28.882;2022-12-07T02:30:19;100831.66;;;0.49;100.00
71857;BME280;63344;46.980;28.882;2022-12-07T02:33:00;100819.47;;;0.48;100.00
71857;BME280;63344;46.980;28.882;2022-12-07T02:35:34;100815.13;;;0.47;100.00
71857;BME280;63344;46.980;28.882;2022-12-07T02:38:13;100809.00;;;0.45;100.00
71857;BME280;63344;46.980;28.882;2022-12-07T02:43:41;100820.38;;;0.53;100.00
71857;BME280;63344;46.980;28.882;2022-12-07T02:46:17;100811.66;;;0.54;100.00
71857;BME280;63344;46.980;28.882;2022-12-07T02:48:49;100811.69;;;0.57;100.00
71857;BME280;63344;46.980;28.882;2022-12-07T02:51:18;100808.22;;;0.58;100.00
71857;BME280;63344;46.980;28.882;2022-12-07T02:53:47;100805.59;;;0.56;100.00
71857;BME280;63344;46.980;28.882;2022-12-07T03:16:35;100776.84;;;0.61;100.00
71857;BME280;63344;46.980;28.882;2022-12-07T03:19:10;100782.97;;;0.65;100.00
71857;BME280;63344;46.980;28.882;2022-12-07T03:21:46;100764.66;;;0.62;100.00
71857;BME280;63344;46.980;28.882;2022-12-07T03:24:15;100767.28;;;0.60;100.00
71857;BME280;63344;46.980;28.882;2022-12-07T03:26:51;100770.78;;;0.62;100.00
71857;BME280;63344;46.980;28.882;2022-12-07T03:29:24;100768.16;;;0.65;100.00
71857;BME280;63344;46.980;28.882;2022-12-07T03:32:12;100775.16;;;0.71;100.00
71857;BME280;63344;46.980;28.882;2022-12-07T03:34:52;100776.00;;;0.70;100.00
71857;BME280;63344;46.980;28.882;2022-12-07T03:37:29;100770.78;;;0.67;100.00
71857;BME280;63344;46.980;28.882;2022-12-07T03:42:29;100766.44;;;0.64;100.00
71857;BME280;63344;46.980;28.882;2022-12-07T03:45:00;100759.44;;;0.63;100.00
71857;BME280;63344;46.980;28.882;2022-12-07T03:47:40;100759.44;;;0.65;100.00
71857;BME280;63344;46.980;28.882;2022-12-07T03:50:28;100767.31;;;0.66;100.00
71857;BME280;63344;46.980;28.882;2022-12-07T03:53:04;100761.19;;;0.67;100.00
71857;BME280;63344;46.980;28.882;2022-12-07T03:55:37;100761.19;;;0.66;100.00
71857;BME280;63344;46.980;28.882;2022-12-07T03:58:09;100760.34;;;0.71;100.00
71857;BME280;63344;46.980;28.882;2022-12-07T04:00:37;100750.75;;;0.67;100.00
71857;BME280;63344;46.980;28.882;2022-12-07T04:03:05;100768.22;;;0.76;100.00
71857;BME280;63344;46.980;28.882;2022-12-07T04:05:32;100744.69;;;0.74;100.00
71857;BME280;63344;46.980;28.882;2022-12-07T04:07:59;100753.41;;;0.78;100.00
71857;BME280;63344;46.980;28.882;2022-12-07T04:10:26;100753.41;;;0.83;100.00
71857;BME280;63344;46.980;28.882;2022-12-07T04:12:54;100751.69;;;0.85;100.00
71857;BME280;63344;46.980;28.882;2022-12-07T04:15:21;100739.47;;;0.87;100.00
71857;BME280;63344;46.980;28.882;2022-12-07T04:17:49;100749.06;;;0.91;100.00
71857;BME280;63344;46.980;28.882;2022-12-07T04:20:17;100752.59;;;0.96;100.00
71857;BME280;63344;46.980;28.882;2022-12-07T04:22:45;100743.00;;;0.99;100.00
71857;BME280;63344;46.980;28.882;2022-12-07T04:25:12;100748.22;;;1.01;100.00
71857;BME280;63344;46.980;28.882;2022-12-07T04:27:39;100740.41;;;0.98;100.00
71857;BME280;63344;46.980;28.882;2022-12-07T04:30:07;100736.03;;;0.98;100.00
71857;BME280;63344;46.980;28.882;2022-12-07T04:32:35;100742.13;;;1.04;100.00
71857;BME280;63344;46.980;28.882;2022-12-07T04:35:02;100745.63;;;1.07;100.00
71857;BME280;63344;46.980;28.882;2022-12-07T04:37:30;100736.03;;;1.05;100.00
71857;BME280;63344;46.980;28.882;2022-12-07T04:39:57;100745.63;;;1.13;100.00
71857;BME280;63344;46.980;28.882;2022-12-07T04:42:25;100728.19;;;1.11;100.00
71857;BME280;63344;46.980;28.882;2022-12-07T04:44:52;100738.66;;;1.15;100.00
71857;BME280;63344;46.980;28.882;2022-12-07T04:47:20;100739.56;;;1.21;100.00
71857;BME280;63344;46.980;28.882;2022-12-07T04:49:47;100730.84;;;1.20;100.00
71857;BME280;63344;46.980;28.882;2022-12-07T04:52:15;100736.94;;;1.24;100.00
71857;BME280;63344;46.980;28.882;2022-12-07T04:54:41;100722.13;;;1.23;100.00
71857;BME280;63344;46.980;28.882;2022-12-07T04:57:10;100738.69;;;1.31;100.00
71857;BME280;63344;46.980;28.882;2022-12-07T04:59:37;100714.25;;;1.26;100.00
71857;BME280;63344;46.980;28.882;2022-12-07T05:02:11;100728.25;;;1.34;100.00
71857;BME280;63344;46.980;28.882;2022-12-07T05:04:38;100713.41;;;1.28;100.00
71857;BME280;63344;46.980;28.882;2022-12-07T05:07:06;100716.00;;;1.33;100.00
71857;BME280;63344;46.980;28.882;2022-12-07T05:09:35;100727.34;;;1.41;100.00
71857;BME280;63344;46.980;28.882;2022-12-07T05:12:03;100724.75;;;1.38;100.00
71857;BME280;63344;46.980;28.882;2022-12-07T05:14:31;100717.75;;;1.37;100.00
71857;BME280;63344;46.980;28.882;2022-12-07T05:17:10;100718.63;;;1.41;100.00
71857;BME280;63344;46.980;28.882;2022-12-07T05:19:39;100720.38;;;1.43;100.00
71857;BME280;63344;46.980;28.882;2022-12-07T05:22:09;100722.13;;;1.46;100.00
71857;BME280;63344;46.980;28.882;2022-12-07T05:24:37;100722.13;;;1.46;100.00
71857;BME280;63344;46.980;28.882;2022-12-07T05:27:05;100716.00;;;1.45;100.00
71857;BME280;63344;46.980;28.882;2022-12-07T05:29:34;100724.75;;;1.50;100.00
71857;BME280;63344;46.980;28.882;2022-12-07T05:32:05;100725.63;;;1.54;100.00
71857;BME280;63344;46.980;28.882;2022-12-07T05:34:32;100728.22;;;1.55;100.00
71857;BME280;63344;46.980;28.882;2022-12-07T05:37:00;100725.63;;;1.57;100.00
71857;BME280;63344;46.980;28.882;2022-12-07T05:39:27;100724.75;;;1.56;100.00
71857;BME280;63344;46.980;28.882;2022-12-07T05:41:55;100716.00;;;1.51;100.00
71857;BME280;63344;46.980;28.882;2022-12-07T05:44:52;100725.63;;;1.65;100.00
71857;BME280;63344;46.980;28.882;2022-12-07T05:47:21;100716.88;;;1.61;100.00
71857;BME280;63344;46.980;28.882;2022-12-07T05:49:48;100701.19;;;1.63;100.00
71857;BME280;63344;46.980;28.882;2022-12-07T05:52:16;100722.97;;;1.68;100.00
71857;BME280;63344;46.980;28.882;2022-12-07T05:54:44;100715.13;;;1.69;100.00
71857;BME280;63344;46.980;28.882;2022-12-07T05:57:11;100703.81;;;1.63;100.00
71857;BME280;63344;46.980;28.882;2022-12-07T05:59:38;100708.16;;;1.68;100.00
71857;BME280;63344;46.980;28.882;2022-12-07T06:02:11;100708.16;;;1.71;100.00
71857;BME280;63344;46.980;28.882;2022-12-07T06:04:41;100703.78;;;1.70;100.00
71857;BME280;63344;46.980;28.882;2022-12-07T06:07:11;100713.38;;;1.71;100.00
71857;BME280;63344;46.980;28.882;2022-12-07T06:09:45;100705.53;;;1.73;100.00
71857;BME280;63344;46.980;28.882;2022-12-07T06:12:14;100718.59;;;1.77;100.00
71857;BME280;63344;46.980;28.882;2022-12-07T06:15:03;100723.84;;;1.81;100.00
71857;BME280;63344;46.980;28.882;2022-12-07T06:17:31;100720.38;;;1.78;100.00
71857;BME280;63344;46.980;28.882;2022-12-07T06:19:58;100711.66;;;1.78;100.00
71857;BME280;63344;46.980;28.882;2022-12-07T06:22:26;100710.75;;;1.81;100.00
71857;BME280;63344;46.980;28.882;2022-12-07T06:24:53;100708.16;;;1.82;100.00
71857;BME280;63344;46.980;28.882;2022-12-07T06:27:21;100710.75;;;1.85;100.00
71857;BME280;63344;46.980;28.882;2022-12-07T06:29:48;100710.75;;;1.87;100.00
71857;BME280;63344;46.980;28.882;2022-12-07T06:32:16;100720.34;;;1.92;100.00
71857;BME280;63344;46.980;28.882;2022-12-07T06:34:43;100716.88;;;1.92;100.00
71857;BME280;63344;46.980;28.882;2022-12-07T06:37:10;100718.59;;;1.94;100.00
71857;BME280;63344;46.980;28.882;2022-12-07T06:39:37;100726.44;;;1.97;100.00
71857;BME280;63344;46.980;28.882;2022-12-07T06:42:05;100722.97;;;2.00;100.00
71857;BME280;63344;46.980;28.882;2022-12-07T06:44:32;100720.34;;;1.98;100.00
71857;BME280;63344;46.980;28.882;2022-12-07T06:47:00;100714.22;;;1.96;100.00
71857;BME280;63344;46.980;28.882;2022-12-07T06:49:47;100709.00;;;1.96;100.00
71857;BME280;63344;46.980;28.882;2022-12-07T06:52:15;100714.19;;;1.99;100.00
71857;BME280;63344;46.980;28.882;2022-12-07T06:54:42;100708.09;;;2.05;100.00
71857;BME280;63344;46.980;28.882;2022-12-07T06:57:09;100707.22;;;2.08;100.00
71857;BME280;63344;46.980;28.882;2022-12-07T06:59:36;100699.38;;;2.06;100.00
71857;BME280;63344;46.980;28.882;2022-12-07T07:02:04;100702.00;;;2.08;100.00
71857;BME280;63344;46.980;28.882;2022-12-07T07:04:32;100705.47;;;2.10;100.00
71857;BME280;63344;46.980;28.882;2022-12-07T07:07:00;100712.44;;;2.12;99.84
71857;BME280;63344;46.980;28.882;2022-12-07T07:09:29;100698.47;;;2.07;100.00
71857;BME280;63344;46.980;28.882;2022-12-07T07:11:56;100703.72;;;2.06;99.92
71857;BME280;63344;46.980;28.882;2022-12-07T07:14:24;100702.00;;;2.08;99.91
71857;BME280;63344;46.980;28.882;2022-12-07T07:16:52;100699.34;;;2.02;99.78
71857;BME280;63344;46.980;28.882;2022-12-07T07:19:19;100709.81;;;2.09;100.00
71857;BME280;63344;46.980;28.882;2022-12-07T07:21:46;100704.59;;;2.08;99.85
71857;BME280;63344;46.980;28.882;2022-12-07T07:24:13;100708.97;;;2.12;99.84
71857;BME280;63344;46.980;28.882;2022-12-07T07:26:41;100700.22;;;2.13;100.00
71857;BME280;63344;46.980;28.882;2022-12-07T07:29:10;100700.22;;;2.10;99.69
71857;BME280;63344;46.980;28.882;2022-12-07T07:31:46;100697.63;;;2.10;99.67
71857;BME280;63344;46.980;28.882;2022-12-07T07:34:13;100697.63;;;2.10;99.22
71857;BME280;63344;46.980;28.882;2022-12-07T07:36:41;100688.88;;;2.12;99.58
71857;BME280;63344;46.980;28.882;2022-12-07T07:39:09;100686.22;;;2.15;99.41
71857;BME280;63344;46.980;28.882;2022-12-07T07:41:37;100699.28;;;2.25;99.48
71857;BME280;63344;46.980;28.882;2022-12-07T07:44:04;100687.94;;;2.24;99.64
71857;BME280;63344;46.980;28.882;2022-12-07T07:46:32;100684.44;;;2.27;99.66
71857;BME280;63344;46.980;28.882;2022-12-07T07:49:00;100701.00;;;2.35;99.82
71857;BME280;63344;46.980;28.882;2022-12-07T07:51:30;100686.16;;;2.34;100.00
71857;BME280;63344;46.980;28.882;2022-12-07T07:53:57;100691.38;;;2.38;99.96
71857;BME280;63344;46.980;28.882;2022-12-07T07:56:24;100699.22;;;2.45;99.99
71857;BME280;63344;46.980;28.882;2022-12-07T07:58:52;100691.34;;;2.45;99.85
71857;BME280;63344;46.980;28.882;2022-12-07T08:01:33;100700.94;;;2.50;99.89
71857;BME280;63344;46.980;28.882;2022-12-07T08:04:15;100689.56;;;2.54;100.00
71857;BME280;63344;46.980;28.882;2022-12-07T08:06:46;100701.75;;;2.65;99.86
71857;BME280;63344;46.980;28.882;2022-12-07T08:09:15;100692.97;;;2.69;99.90
71857;BME280;63344;46.980;28.882;2022-12-07T08:11:44;100685.16;;;2.64;99.58
71857;BME280;63344;46.980;28.882;2022-12-07T08:14:12;100686.00;;;2.66;99.73
71857;BME280;63344;46.980;28.882;2022-12-07T08:16:40;100698.19;;;2.73;99.49
71857;BME280;63344;46.980;28.882;2022-12-07T08:19:08;100686.84;;;2.71;99.61
71857;BME280;63344;46.980;28.882;2022-12-07T08:21:37;100693.81;;;2.80;99.99
71857;BME280;63344;46.980;28.882;2022-12-07T08:24:05;100680.69;;;2.80;99.87
71857;BME280;63344;46.980;28.882;2022-12-07T08:26:32;100679.78;;;2.86;100.00
71857;BME280;63344;46.980;28.882;2022-12-07T08:29:00;100691.09;;;2.92;100.00
71857;BME280;63344;46.980;28.882;2022-12-07T08:31:31;100698.03;;;2.99;100.00
71857;BME280;63344;46.980;28.882;2022-12-07T08:33:59;100691.97;;;2.93;100.00
71857;BME280;63344;46.980;28.882;2022-12-07T08:36:27;100691.91;;;3.02;100.00
71857;BME280;63344;46.980;28.882;2022-12-07T08:38:54;100685.78;;;3.06;100.00
71857;BME280;63344;46.980;28.882;2022-12-07T08:41:41;100690.97;;;3.09;100.00
71857;BME280;63344;46.980;28.882;2022-12-07T08:44:08;100670.06;;;3.00;99.52
71857;BME280;63344;46.980;28.882;2022-12-07T08:46:44;100671.78;;;3.01;99.39
71857;BME280;63344;46.980;28.882;2022-12-07T08:49:22;100670.94;;;3.04;99.36
71857;BME280;63344;46.980;28.882;2022-12-07T08:51:51;100682.28;;;3.04;99.01
71857;BME280;63344;46.980;28.882;2022-12-07T08:54:21;100673.56;;;3.04;98.89
71857;BME280;63344;46.980;28.882;2022-12-07T08:56:49;100667.34;;;3.11;99.10
71857;BME280;63344;46.980;28.882;2022-12-07T08:59:26;100662.09;;;3.14;99.45
71857;BME280;63344;46.980;28.882;2022-12-07T09:01:59;100661.19;;;3.19;99.19
71857;BME280;63344;46.980;28.882;2022-12-07T09:04:30;100658.47;;;3.30;99.85
71857;BME280;63344;46.980;28.882;2022-12-07T09:07:12;100664.50;;;3.42;99.79
71857;BME280;63344;46.980;28.882;2022-12-07T09:09:42;100659.16;;;3.51;100.00
71857;BME280;63344;46.980;28.882;2022-12-07T09:12:09;100656.44;;;3.60;100.00
71857;BME280;63344;46.980;28.882;2022-12-07T09:14:37;100646.69;;;3.71;100.00
71857;BME280;63344;46.980;28.882;2022-12-07T09:17:09;100651.91;;;3.76;100.00
71857;BME280;63344;46.980;28.882;2022-12-07T09:19:37;100640.50;;;3.78;100.00
71857;BME280;63344;46.980;28.882;2022-12-07T09:22:05;100636.09;;;3.82;100.00
71857;BME280;63344;46.980;28.882;2022-12-07T09:24:33;100652.63;;;3.89;100.00
71857;BME280;63344;46.980;28.882;2022-12-07T09:27:00;100630.78;;;3.85;99.80
71857;BME280;63344;46.980;28.882;2022-12-07T09:29:27;100642.97;;;3.91;99.69
71857;BME280;63344;46.980;28.882;2022-12-07T09:31:54;100644.78;;;3.87;99.15
71857;BME280;63344;46.980;28.882;2022-12-07T09:34:22;100627.31;;;3.83;99.01
71857;BME280;63344;46.980;28.882;2022-12-07T09:36:50;100635.09;;;3.89;99.02
71857;BME280;63344;46.980;28.882;2022-12-07T09:39:17;100622.88;;;3.87;99.40
71857;BME280;63344;46.980;28.882;2022-12-07T09:41:46;100632.44;;;3.94;99.85
71857;BME280;63344;46.980;28.882;2022-12-07T09:44:20;100627.13;;;4.00;99.83
71857;BME280;63344;46.980;28.882;2022-12-07T09:46:50;100626.97;;;4.11;99.77
71857;BME280;63344;46.980;28.882;2022-12-07T09:49:22;100625.19;;;4.16;99.84
71857;BME280;63344;46.980;28.882;2022-12-07T09:54:41;100614.50;;;4.28;99.82
71857;BME280;63344;46.980;28.882;2022-12-07T09:57:11;100617.91;;;4.35;99.75
71857;BME280;63344;46.980;28.882;2022-12-07T10:00:29;100617.81;;;4.43;99.70
71857;BME280;63344;46.980;28.882;2022-12-07T10:03:11;100609.06;;;4.44;99.63
71857;BME280;63344;46.980;28.882;2022-12-07T10:05:45;100614.25;;;4.47;99.66
71857;BME280;63344;46.980;28.882;2022-12-07T10:08:13;100608.03;;;4.52;99.41
71857;BME280;63344;46.980;28.882;2022-12-07T10:10:43;100601.06;;;4.50;99.35
71857;BME280;63344;46.980;28.882;2022-12-07T10:13:14;100597.50;;;4.55;99.28
71857;BME280;63344;46.980;28.882;2022-12-07T10:15:53;100599.97;;;4.63;99.30
71857;BME280;63344;46.980;28.882;2022-12-07T10:18:40;100604.28;;;4.69;99.44
71857;BME280;63344;46.980;28.882;2022-12-07T10:23:38;100614.69;;;4.78;99.39
71857;BME280;63344;46.980;28.882;2022-12-07T10:26:38;100593.63;;;4.78;99.25
71857;BME280;63344;46.980;28.882;2022-12-07T10:29:23;100599.63;;;4.88;99.41
71857;BME280;63344;46.980;28.882;2022-12-07T10:31:59;100590.81;;;4.89;99.14
71857;BME280;63344;46.980;28.882;2022-12-07T10:34:30;100576.81;;;4.88;99.51
71857;BME280;63344;46.980;28.882;2022-12-07T10:39:52;100586.34;;;4.95;98.64
71857;BME280;63344;46.980;28.882;2022-12-07T10:42:27;100590.63;;;5.01;98.86
71857;BME280;63344;46.980;28.882;2022-12-07T10:45:17;100585.34;;;5.01;98.28
71857;BME280;63344;46.980;28.882;2022-12-07T10:47:53;100581.00;;;5.00;98.55
71857;BME280;63344;46.980;28.882;2022-12-07T10:50:54;100596.59;;;5.11;98.57
71857;BME280;63344;46.980;28.882;2022-12-07T10:53:48;100590.53;;;5.07;97.65
71857;BME280;63344;46.980;28.882;2022-12-07T10:57:03;100585.22;;;5.09;98.05
71857;BME280;63344;46.980;28.882;2022-12-07T11:05:27;100583.34;;;5.17;97.26
71857;BME280;63344;46.980;28.882;2022-12-07T11:11:00;100592.06;;;5.21;97.47
71857;BME280;63344;46.980;28.882;2022-12-07T11:14:03;100587.59;;;5.26;97.78
71857;BME280;63344;46.980;28.882;2022-12-07T11:22:46;100578.56;;;5.39;98.18
71857;BME280;63344;46.980;28.882;2022-12-07T11:25:23;100569.78;;;5.38;98.22
71857;BME280;63344;46.980;28.882;2022-12-07T11:28:28;100582.88;;;5.43;98.40
71857;BME280;63344;46.980;28.882;2022-12-07T11:36:54;100578.34;;;5.51;98.01
71857;BME280;63344;46.980;28.882;2022-12-07T11:39:29;100581.00;;;5.51;97.79
71857;BME280;63344;46.980;28.882;2022-12-07T11:42:06;100561.88;;;5.40;97.34
71857;BME280;63344;46.980;28.882;2022-12-07T11:44:59;100573.97;;;5.50;97.44
71857;BME280;63344;46.980;28.882;2022-12-07T11:47:41;100565.22;;;5.48;97.58
71857;BME280;63344;46.980;28.882;2022-12-07T11:50:38;100570.38;;;5.54;97.58
71857;BME280;63344;46.980;28.882;2022-12-07T11:55:47;100553.59;;;5.60;97.35
71857;BME280;63344;46.980;28.882;2022-12-07T12:06:42;100546.84;;;5.90;98.49
71857;BME280;63344;46.980;28.882;2022-12-07T12:09:32;100554.59;;;6.00;98.77
71857;BME280;63344;46.980;28.882;2022-12-07T12:12:31;100565.84;;;6.08;98.88
71857;BME280;63344;46.980;28.882;2022-12-07T12:15:30;100571.91;;;6.11;98.54
71857;BME280;63344;46.980;28.882;2022-12-07T12:21:31;100573.53;;;6.17;98.00
71857;BME280;63344;46.980;28.882;2022-12-07T12:24:15;100574.31;;;6.22;97.49
71857;BME280;63344;46.980;28.882;2022-12-07T12:26:52;100567.22;;;6.26;96.96
71857;BME280;63344;46.980;28.882;2022-12-07T12:29:33;100569.00;;;6.25;96.53
71857;BME280;63344;46.980;28.882;2022-12-07T12:35:02;100557.69;;;6.18;96.39
71857;BME280;63344;46.980;28.882;2022-12-07T12:42:48;100561.06;;;6.25;96.69
71857;BME280;63344;46.980;28.882;2022-12-07T12:47:59;100568.84;;;6.31;96.24
71857;BME280;63344;46.980;28.882;2022-12-07T12:50:30;100573.19;;;6.34;96.08
71857;BME280;63344;46.980;28.882;2022-12-07T12:53:00;100560.03;;;6.32;96.67
71857;BME280;63344;46.980;28.882;2022-12-07T13:03:36;100561.63;;;6.40;95.91
71857;BME280;63344;46.980;28.882;2022-12-07T13:08:47;100565.91;;;6.45;95.67
71857;BME280;63344;46.980;28.882;2022-12-07T13:11:25;100557.06;;;6.46;95.80
71857;BME280;63344;46.980;28.882;2022-12-07T13:17:01;100546.53;;;6.46;95.50
71857;BME280;63344;46.980;28.882;2022-12-07T13:25:07;100573.63;;;6.53;95.20
71857;BME280;63344;46.980;28.882;2022-12-07T13:27:41;100565.81;;;6.48;94.92
71857;BME280;63344;46.980;28.882;2022-12-07T13:30:16;100572.03;;;6.46;95.13
71857;BME280;63344;46.980;28.882;2022-12-07T13:32:43;100564.28;;;6.40;95.09
71857;BME280;63344;46.980;28.882;2022-12-07T13:37:56;100563.50;;;6.34;94.77
71857;BME280;63344;46.980;28.882;2022-12-07T13:40:24;100563.63;;;6.28;94.74
71857;BME280;63344;46.980;28.882;2022-12-07T13:43:02;100567.25;;;6.24;95.00
71857;BME280;63344;46.980;28.882;2022-12-07T13:45:32;100569.19;;;6.16;94.82
71857;BME280;63344;46.980;28.882;2022-12-07T13:48:42;100567.53;;;6.10;95.24
71857;BME280;63344;46.980;28.882;2022-12-07T13:51:34;100553.69;;;6.01;95.03
71857;BME280;63344;46.980;28.882;2022-12-07T13:54:10;100553.75;;;5.97;95.41
71857;BME280;63344;46.980;28.882;2022-12-07T13:56:37;100567.84;;;5.95;95.62
71857;BME280;63344;46.980;28.882;2022-12-07T13:59:21;100568.88;;;5.86;95.46
71857;BME280;63344;46.980;28.882;2022-12-07T14:01:51;100564.63;;;5.79;95.85
71857;BME280;63344;46.980;28.882;2022-12-07T14:06:50;100577.06;;;5.72;96.13
71857;BME280;63344;46.980;28.882;2022-12-07T14:09:20;100571.81;;;5.71;96.56
71857;BME280;63344;46.980;28.882;2022-12-07T14:11:51;100582.34;;;5.71;96.64
71857;BME280;63344;46.980;28.882;2022-12-07T14:14:28;100587.63;;;5.71;96.33
71857;BME280;63344;46.980;28.882;2022-12-07T14:17:28;100578.97;;;5.66;96.56
71857;BME280;63344;46.980;28.882;2022-12-07T14:19:58;100587.75;;;5.65;96.94
71857;BME280;63344;46.980;28.882;2022-12-07T14:22:35;100591.22;;;5.67;96.98
71857;BME280;63344;46.980;28.882;2022-12-07T14:25:19;100598.25;;;5.68;97.18
71857;BME280;63344;46.980;28.882;2022-12-07T14:28:01;100603.56;;;5.65;97.35
71857;BME280;63344;46.980;28.882;2022-12-07T14:30:33;100614.06;;;5.66;97.08
71857;BME280;63344;46.980;28.882;2022-12-07T14:33:03;100608.06;;;5.59;97.28
71857;BME280;63344;46.980;28.882;2022-12-07T14:35:32;100606.31;;;5.57;97.05
71857;BME280;63344;46.980;28.882;2022-12-07T14:37:59;100616.78;;;5.63;97.43
71857;BME280;63344;46.980;28.882;2022-12-07T14:40:28;100621.16;;;5.63;97.27
71857;BME280;63344;46.980;28.882;2022-12-07T14:43:01;100618.59;;;5.59;97.75
71857;BME280;63344;46.980;28.882;2022-12-07T14:45:30;100625.56;;;5.62;97.19
71857;BME280;63344;46.980;28.882;2022-12-07T14:47:58;100611.75;;;5.49;97.24
71857;BME280;63344;46.980;28.882;2022-12-07T14:50:49;100616.91;;;5.55;97.01
71857;BME280;63344;46.980;28.882;2022-12-07T14:53:41;100619.59;;;5.52;97.00
71857;BME280;63344;46.980;28.882;2022-12-07T14:56:09;100633.66;;;5.51;96.75
71857;BME280;63344;46.980;28.882;2022-12-07T14:58:37;100632.88;;;5.46;96.90
71857;BME280;63344;46.980;28.882;2022-12-07T15:01:04;100627.59;;;5.46;97.30
71857;BME280;63344;46.980;28.882;2022-12-07T15:03:32;100632.00;;;5.47;97.32
71857;BME280;63344;46.980;28.882;2022-12-07T15:06:01;100634.63;;;5.47;97.55